createdAt,value
2019-01-06T00:02:21.742Z,2.63
2019-01-06T00:05:11.262Z,2.73
2019-01-06T00:08:17.431Z,3.77
2019-01-06T00:11:05.630Z,3.23
2019-01-06T00:13:55.357Z,2.33
2019-01-06T00:16:46.457Z,2.20
2019-01-06T00:19:36.079Z,4.13
2019-01-06T00:22:39.084Z,3.93
2019-01-06T00:25:28.433Z,3.53
2019-01-06T00:28:17.942Z,1.50
2019-01-06T00:31:02.061Z,1.77
2019-01-06T00:33:51.752Z,2.40
2019-01-06T00:36:49.006Z,2.30
2019-01-06T00:39:52.040Z,1.80
2019-01-06T00:42:58.184Z,2.43
2019-01-06T00:45:49.170Z,3.13
2019-01-06T00:48:49.814Z,2.43
2019-01-06T00:51:43.824Z,2.37
2019-01-06T00:54:33.319Z,2.30
2019-01-06T00:57:22.909Z,4.20
2019-01-06T01:00:12.499Z,2.20
2019-01-06T01:03:02.131Z,1.77
2019-01-06T01:05:56.316Z,1.80
2019-01-06T01:08:47.268Z,2.03
2019-01-06T01:11:44.445Z,2.10
2019-01-06T01:14:35.602Z,1.93
2019-01-06T01:17:27.293Z,2.27
2019-01-06T01:20:25.259Z,2.57
2019-01-06T01:23:25.446Z,1.97
2019-01-06T01:26:31.574Z,1.97
2019-01-06T01:29:31.197Z,2.10
2019-01-06T01:32:27.957Z,2.07
2019-01-06T01:35:17.329Z,3.60
2019-01-06T01:38:08.328Z,2.20
2019-01-06T01:40:57.992Z,1.90
2019-01-06T01:43:47.654Z,2.03
2019-01-06T01:46:41.156Z,2.73
2019-01-06T01:49:30.530Z,2.43
2019-01-06T01:52:20.092Z,2.93
2019-01-06T01:55:29.012Z,2.73
2019-01-06T01:58:34.981Z,2.10
2019-01-06T02:01:22.978Z,2.20
2019-01-06T02:04:32.304Z,2.20
2019-01-06T02:07:22.035Z,1.80
2019-01-06T02:10:13.023Z,1.77
2019-01-06T02:13:10.023Z,1.90
2019-01-06T02:16:16.083Z,1.80
2019-01-06T02:19:20.709Z,2.00
2019-01-06T02:22:14.620Z,2.63
2019-01-06T02:25:18.528Z,2.10
2019-01-06T02:28:08.052Z,1.63
2019-01-06T02:30:57.821Z,2.53
2019-01-06T02:33:47.359Z,2.50
2019-01-06T02:36:53.915Z,1.97
2019-01-06T02:39:43.303Z,2.50
2019-01-06T02:42:32.924Z,1.97
2019-01-06T02:45:24.464Z,1.40
2019-01-06T02:48:30.362Z,2.17
2019-01-06T02:51:19.938Z,1.73
2019-01-06T02:54:13.919Z,1.67
2019-01-06T02:57:03.701Z,1.70
2019-01-06T02:59:48.914Z,1.70
2019-01-06T03:02:54.824Z,1.53
2019-01-06T03:05:48.592Z,2.10
2019-01-06T03:08:45.607Z,2.10
2019-01-06T03:11:35.126Z,2.60
2019-01-06T03:14:26.219Z,2.33
2019-01-06T03:17:20.220Z,2.40
2019-01-06T03:20:13.251Z,1.87
2019-01-06T03:23:13.097Z,1.80
2019-01-06T03:26:04.086Z,1.57
2019-01-06T03:29:04.085Z,2.03
2019-01-06T03:31:53.697Z,2.20
2019-01-06T03:34:43.364Z,2.20
2019-01-06T03:37:49.486Z,2.00
2019-01-06T03:40:40.489Z,1.57
2019-01-06T03:43:37.080Z,2.53
2019-01-06T03:46:34.078Z,1.20
2019-01-06T03:49:31.056Z,2.13
2019-01-06T03:52:16.854Z,1.00
2019-01-06T03:55:20.084Z,2.60
2019-01-06T03:58:10.178Z,2.10
2019-01-06T04:01:09.904Z,1.77
2019-01-06T04:04:00.995Z,2.10
2019-01-06T04:07:10.152Z,2.17
2019-01-06T04:10:15.901Z,2.23
2019-01-06T04:13:05.411Z,1.23
2019-01-06T04:15:55.180Z,1.93
2019-01-06T04:18:44.867Z,2.60
2019-01-06T04:21:50.966Z,1.90
2019-01-06T04:24:44.974Z,2.57
2019-01-06T04:27:38.672Z,2.80
2019-01-06T04:30:36.008Z,2.30
2019-01-06T04:33:33.171Z,2.87
2019-01-06T04:36:39.086Z,2.20
2019-01-06T04:39:30.078Z,2.70
2019-01-06T04:42:19.824Z,3.57
2019-01-06T04:45:10.818Z,1.97
2019-01-06T04:48:05.020Z,2.33
2019-01-06T04:51:03.822Z,3.83
2019-01-06T04:54:03.890Z,2.87
2019-01-06T04:56:54.867Z,2.23
2019-01-06T04:59:44.480Z,1.63
2019-01-06T05:02:33.969Z,3.00
2019-01-06T05:05:37.221Z,2.87
2019-01-06T05:08:46.075Z,2.80
2019-01-06T05:11:37.065Z,3.33
2019-01-06T05:14:31.090Z,2.23
2019-01-06T05:17:25.145Z,3.27
2019-01-06T05:20:19.094Z,2.60
2019-01-06T05:23:10.098Z,2.23
2019-01-06T05:26:03.822Z,2.57
2019-01-06T05:28:53.566Z,2.47
2019-01-06T05:31:43.103Z,1.90
2019-01-06T05:34:32.692Z,2.83
2019-01-06T05:37:38.797Z,1.60
2019-01-06T05:40:28.175Z,2.90
2019-01-06T05:43:22.123Z,2.53
2019-01-06T05:46:25.236Z,1.70
2019-01-06T05:49:25.200Z,3.20
2019-01-06T05:52:34.390Z,2.33
2019-01-06T05:55:21.138Z,2.17
2019-01-06T05:58:12.121Z,2.03
2019-01-06T06:01:01.843Z,2.20
2019-01-06T06:03:51.435Z,2.43
2019-01-06T06:06:42.429Z,2.60
2019-01-06T06:09:36.419Z,2.07
2019-01-06T06:12:45.561Z,2.50
2019-01-06T06:15:42.273Z,2.27
2019-01-06T06:18:48.011Z,2.73
2019-01-06T06:21:37.609Z,1.63
2019-01-06T06:24:37.609Z,1.80
2019-01-06T06:27:34.778Z,1.77
2019-01-06T06:30:45.211Z,2.23
2019-01-06T06:33:36.200Z,3.00
2019-01-06T06:36:26.789Z,1.73
2019-01-06T06:39:17.793Z,1.77
2019-01-06T06:42:23.640Z,1.50
2019-01-06T06:45:08.517Z,2.23
2019-01-06T06:47:57.761Z,1.70
2019-01-06T06:50:47.446Z,2.20
2019-01-06T06:53:34.641Z,1.70
2019-01-06T06:56:43.662Z,2.10
2019-01-06T06:59:32.956Z,1.60
2019-01-06T07:03:15.309Z,1.50
2019-01-06T07:06:06.311Z,2.17
2019-01-06T07:08:57.270Z,1.77
2019-01-06T07:11:48.652Z,2.17
2019-01-06T07:14:38.024Z,1.87
2019-01-06T07:18:11.904Z,2.50
2019-01-06T07:21:05.937Z,1.60
2019-01-06T07:23:55.470Z,1.57
2019-01-06T07:26:44.854Z,0.70
2019-01-06T07:29:41.555Z,0.77
2019-01-06T07:32:32.548Z,1.10
2019-01-06T07:35:21.855Z,0.73
2019-01-06T07:38:27.826Z,0.57
2019-01-06T07:41:27.816Z,0.87
2019-01-06T07:44:17.656Z,0.60
2019-01-06T07:47:07.223Z,0.80
2019-01-06T07:50:07.373Z,1.10
2019-01-06T07:52:56.794Z,0.97
2019-01-06T07:55:56.907Z,1.40
2019-01-06T07:58:50.836Z,2.33
2019-01-06T08:01:56.882Z,1.50
2019-01-06T08:04:47.986Z,1.00
2019-01-06T08:07:42.008Z,1.20
2019-01-06T08:10:33.186Z,1.00
2019-01-06T08:13:27.309Z,1.17
2019-01-06T08:16:21.079Z,0.80
2019-01-06T08:19:10.644Z,0.97
2019-01-06T08:22:04.802Z,1.20
2019-01-06T08:24:54.826Z,1.40
2019-01-06T08:27:46.821Z,8.83
2019-01-06T08:30:36.454Z,5.93
2019-01-06T08:33:45.657Z,4.50
2019-01-06T08:36:39.159Z,1.87
2019-01-06T08:39:42.749Z,2.50
2019-01-06T08:42:32.340Z,2.37
2019-01-06T08:45:27.397Z,1.47
2019-01-06T08:48:28.264Z,0.80
2019-01-06T08:51:17.922Z,1.40
2019-01-06T08:54:24.437Z,1.60
2019-01-06T08:57:19.147Z,1.43
2019-01-06T09:00:09.392Z,2.20
2019-01-06T09:02:59.448Z,3.37
2019-01-06T09:05:51.007Z,2.20
2019-01-06T09:09:00.218Z,1.23
2019-01-06T09:12:00.130Z,2.13
2019-01-06T09:14:57.146Z,2.30
2019-01-06T09:17:54.262Z,1.90
2019-01-06T09:20:43.661Z,3.10
2019-01-06T09:23:34.614Z,2.57
2019-01-06T09:26:37.520Z,2.63
2019-01-06T09:29:28.480Z,3.43
2019-01-06T09:32:37.596Z,6.03
2019-01-06T09:35:43.706Z,9.70
2019-01-06T09:38:40.352Z,6.53
2019-01-06T09:41:30.147Z,6.20
2019-01-06T09:44:20.124Z,6.80
2019-01-06T09:47:29.040Z,6.63
2019-01-06T09:50:26.429Z,5.43
2019-01-06T09:53:20.166Z,12.10
2019-01-06T09:56:29.308Z,7.93
2019-01-06T09:59:18.483Z,4.53
2019-01-06T10:02:22.246Z,6.27
2019-01-06T10:05:12.054Z,8.43
2019-01-06T10:08:21.379Z,7.33
2019-01-06T10:11:12.372Z,8.20
2019-01-06T10:14:09.338Z,12.33
2019-01-06T10:17:12.203Z,5.90
2019-01-06T10:20:21.764Z,9.10
2019-01-06T10:23:12.854Z,11.47
2019-01-06T10:26:11.253Z,9.37
2019-01-06T10:29:00.815Z,13.67
2019-01-06T10:31:57.821Z,20.37
2019-01-06T10:34:47.345Z,9.80
2019-01-06T10:37:37.005Z,6.00
2019-01-06T10:40:39.791Z,14.03
2019-01-06T10:43:34.178Z,11.00
2019-01-06T10:46:37.413Z,8.23
2019-01-06T10:49:28.363Z,5.60
2019-01-06T10:52:17.819Z,4.70
2019-01-06T10:55:08.760Z,2.83
2019-01-06T10:57:55.731Z,52.30
2019-01-06T11:00:52.935Z,20.03
2019-01-06T11:03:43.931Z,15.93
2019-01-06T11:06:47.577Z,17.53
2019-01-06T11:09:44.344Z,15.03
2019-01-06T11:12:47.347Z,10.07
2019-01-06T11:15:38.045Z,5.53
2019-01-06T11:18:27.792Z,4.50
2019-01-06T11:21:17.536Z,10.07
2019-01-06T11:24:23.913Z,11.00
2019-01-06T11:27:15.190Z,27.47
2019-01-06T11:30:30.883Z,21.07
2019-01-06T11:33:20.996Z,12.93
2019-01-06T11:36:21.015Z,9.90
2019-01-06T11:39:11.258Z,11.43
2019-01-06T11:42:14.279Z,8.30
2019-01-06T11:45:18.180Z,5.57
2019-01-06T11:48:07.929Z,5.90
2019-01-06T11:50:59.146Z,3.33
2019-01-06T11:53:53.124Z,5.93
2019-01-06T11:56:45.159Z,6.70
2019-01-06T11:59:36.513Z,5.00
2019-01-06T12:02:42.955Z,6.53
2019-01-06T12:05:42.693Z,7.03
2019-01-06T12:08:32.248Z,4.53
2019-01-06T12:11:33.218Z,4.83
2019-01-06T12:14:23.559Z,4.57
2019-01-06T12:17:14.553Z,2.93
2019-01-06T12:20:04.185Z,4.10
2019-01-06T12:22:58.204Z,3.30
2019-01-06T12:25:58.249Z,7.07
2019-01-06T12:29:01.302Z,8.50
2019-01-06T12:31:55.120Z,12.47
2019-01-06T12:34:44.478Z,6.90
2019-01-06T12:37:50.442Z,9.57
2019-01-06T12:40:53.208Z,11.90
2019-01-06T12:43:51.794Z,13.20
2019-01-06T12:46:59.388Z,15.00
2019-01-06T12:49:48.771Z,17.37
2019-01-06T12:52:39.723Z,7.57
2019-01-06T12:55:21.641Z,10.47
2019-01-06T12:58:12.296Z,19.77
2019-01-06T13:01:03.313Z,14.30
2019-01-06T13:04:09.343Z,14.80
2019-01-06T13:06:58.949Z,7.67
2019-01-06T13:09:59.178Z,4.00
2019-01-06T13:12:53.185Z,5.97
2019-01-06T13:15:47.171Z,4.37
2019-01-06T13:18:46.215Z,5.80
2019-01-06T13:21:53.080Z,6.27
2019-01-06T13:24:44.432Z,13.90
2019-01-06T13:27:38.472Z,15.00
2019-01-06T13:30:29.358Z,10.83
2019-01-06T13:33:35.794Z,12.73
2019-01-06T13:36:25.626Z,7.27
2019-01-06T13:39:19.409Z,14.20
2019-01-06T13:42:09.011Z,20.47
2019-01-06T13:45:12.145Z,10.60
2019-01-06T13:48:01.584Z,11.57
2019-01-06T13:50:51.150Z,9.03
2019-01-06T13:53:48.478Z,10.27
2019-01-06T13:56:48.544Z,12.77
2019-01-06T13:59:57.944Z,7.30
2019-01-06T14:03:09.873Z,36.53
2019-01-06T14:06:14.535Z,19.90
2019-01-06T14:09:24.536Z,24.33
2019-01-06T14:12:12.884Z,17.10
2019-01-06T14:15:05.248Z,12.27
2019-01-06T14:18:04.219Z,44.30
2019-01-06T14:21:14.090Z,25.87
2019-01-06T14:24:21.032Z,16.43
2019-01-06T14:27:17.656Z,11.97
2019-01-06T14:30:09.407Z,6.27
2019-01-06T14:33:15.523Z,3.63
2019-01-06T14:36:09.206Z,6.97
2019-01-06T14:39:00.270Z,4.63
2019-01-06T14:41:51.835Z,2.53
2019-01-06T14:44:46.842Z,2.40
2019-01-06T14:47:44.614Z,3.30
2019-01-06T14:50:53.976Z,4.13
2019-01-06T14:53:43.401Z,4.43
2019-01-06T14:56:32.545Z,3.53
2019-01-06T14:59:22.001Z,2.47
2019-01-06T15:02:32.682Z,2.70
2019-01-06T15:05:27.358Z,3.73
2019-01-06T15:08:16.856Z,3.93
2019-01-06T15:11:11.113Z,2.67
2019-01-06T15:14:00.872Z,2.50
2019-01-06T15:16:50.391Z,3.03
2019-01-06T15:19:40.024Z,2.93
2019-01-06T15:22:43.099Z,2.43
2019-01-06T15:25:32.535Z,2.83
2019-01-06T15:28:21.915Z,3.60
2019-01-06T15:31:22.299Z,2.67
2019-01-06T15:34:28.406Z,3.30
2019-01-06T15:37:22.247Z,3.97
2019-01-06T15:40:13.247Z,4.20
2019-01-06T15:43:02.884Z,5.90
2019-01-06T15:45:52.496Z,3.20
2019-01-06T15:48:42.091Z,3.63
2019-01-06T15:51:51.322Z,3.00
2019-01-06T15:54:42.272Z,2.53
2019-01-06T15:57:47.889Z,3.30
2019-01-06T16:00:57.022Z,4.20
2019-01-06T16:03:46.731Z,4.80
2019-01-06T16:06:52.902Z,5.50
2019-01-06T16:09:56.111Z,5.60
2019-01-06T16:12:45.492Z,6.37
2019-01-06T16:15:39.495Z,7.80
2019-01-06T16:18:33.261Z,6.93
2019-01-06T16:21:35.251Z,15.83
2019-01-06T16:24:26.306Z,15.40
2019-01-06T16:27:20.869Z,14.70
2019-01-06T16:30:10.228Z,8.63
2019-01-06T16:33:19.498Z,5.73
2019-01-06T16:36:08.879Z,3.60
2019-01-06T16:39:08.910Z,4.67
2019-01-06T16:42:03.109Z,7.60
2019-01-06T16:45:00.292Z,9.63
2019-01-06T16:48:10.356Z,8.03
2019-01-06T16:50:59.311Z,11.57
2019-01-06T16:53:52.075Z,11.97
2019-01-06T16:56:53.994Z,16.47
2019-01-06T16:59:50.962Z,29.40
2019-01-06T17:02:40.327Z,35.00
2019-01-06T17:05:26.760Z,37.53
2019-01-06T17:08:16.505Z,22.90
2019-01-06T17:11:21.058Z,18.37
2019-01-06T17:14:10.600Z,10.90
2019-01-06T17:17:19.784Z,6.93
2019-01-06T17:20:19.791Z,6.87
2019-01-06T17:23:13.632Z,3.47
2019-01-06T17:26:16.468Z,3.50
2019-01-06T17:29:06.045Z,3.70
2019-01-06T17:32:12.223Z,6.67
2019-01-06T17:35:02.949Z,7.63
2019-01-06T17:37:59.967Z,5.40
2019-01-06T17:40:49.693Z,7.00
2019-01-06T17:43:46.720Z,4.93
2019-01-06T17:46:36.275Z,5.17
2019-01-06T17:49:36.957Z,4.17
2019-01-06T17:52:26.275Z,5.37
2019-01-06T17:55:35.377Z,4.47
2019-01-06T17:58:23.832Z,5.67
2019-01-06T18:01:10.889Z,4.73
2019-01-06T18:04:00.613Z,4.57
2019-01-06T18:06:54.538Z,7.37
2019-01-06T18:09:43.880Z,4.90
2019-01-06T18:12:34.790Z,6.20
2019-01-06T18:15:44.927Z,5.17
2019-01-06T18:18:50.869Z,6.00
2019-01-06T18:21:57.121Z,7.27
2019-01-06T18:25:02.841Z,8.07
2019-01-06T18:28:02.550Z,7.30
2019-01-06T18:30:53.791Z,6.17
2019-01-06T18:34:03.104Z,7.77
2019-01-06T18:36:52.454Z,11.83
2019-01-06T18:39:49.620Z,9.97
2019-01-06T18:42:38.956Z,9.90
2019-01-06T18:45:28.614Z,9.03
2019-01-06T18:48:19.562Z,11.10
2019-01-06T18:51:22.865Z,8.47
2019-01-06T18:54:12.455Z,12.20
2019-01-06T18:57:06.892Z,8.00
2019-01-06T19:00:24.555Z,9.80
2019-01-06T19:03:09.225Z,9.07
2019-01-06T19:06:09.498Z,9.80
2019-01-06T19:09:00.661Z,7.47
2019-01-06T19:12:00.682Z,11.80
2019-01-06T19:14:50.259Z,11.40
2019-01-06T19:17:41.173Z,13.07
2019-01-06T19:20:32.217Z,12.53
2019-01-06T19:23:41.432Z,10.07
2019-01-06T19:26:41.173Z,11.90
2019-01-06T19:29:30.937Z,11.03
2019-01-06T19:32:25.272Z,9.50
2019-01-06T19:35:34.302Z,8.23
2019-01-06T19:38:25.604Z,8.33
2019-01-06T19:41:15.579Z,8.27
2019-01-06T19:44:07.981Z,6.33
2019-01-06T19:47:17.160Z,9.07
2019-01-06T19:50:06.265Z,8.70
2019-01-06T19:53:00.418Z,10.57
2019-01-06T19:56:01.088Z,9.00
2019-01-06T19:59:12.517Z,9.83
2019-01-06T20:02:02.222Z,6.80
2019-01-06T20:04:51.933Z,8.83
2019-01-06T20:07:42.924Z,8.57
2019-01-06T20:10:43.104Z,11.03
2019-01-06T20:13:44.562Z,11.70
2019-01-06T20:16:33.917Z,9.17
2019-01-06T20:19:31.142Z,9.27
2019-01-06T20:22:20.613Z,8.27
2019-01-06T20:25:17.921Z,12.93
2019-01-06T20:28:11.701Z,9.47
2019-01-06T20:31:01.028Z,7.10
2019-01-06T20:33:50.642Z,9.60
2019-01-06T20:36:40.327Z,7.07
2019-01-06T20:39:30.095Z,6.43
2019-01-06T20:42:33.352Z,5.03
2019-01-06T20:45:24.860Z,6.57
2019-01-06T20:48:14.463Z,7.10
2019-01-06T20:51:17.538Z,6.17
2019-01-06T20:54:07.668Z,4.90
2019-01-06T20:57:01.541Z,4.47
2019-01-06T21:00:01.354Z,4.00
2019-01-06T21:02:50.751Z,4.27
2019-01-06T21:05:44.757Z,10.03
2019-01-06T21:08:28.565Z,9.47
2019-01-06T21:11:34.405Z,7.30
2019-01-06T21:14:28.451Z,11.90
2019-01-06T21:17:37.607Z,6.03
2019-01-06T21:20:28.843Z,7.00
2019-01-06T21:23:22.797Z,7.80
2019-01-06T21:26:13.798Z,5.43
2019-01-06T21:28:59.675Z,8.60
2019-01-06T21:31:49.119Z,13.43
2019-01-06T21:34:43.074Z,7.00
2019-01-06T21:37:34.127Z,4.20
2019-01-06T21:40:24.229Z,4.73
2019-01-06T21:43:21.132Z,4.60
2019-01-06T21:46:10.789Z,5.23
2019-01-06T21:49:13.733Z,5.47
2019-01-06T21:52:19.919Z,4.83
2019-01-06T21:55:16.644Z,5.30
2019-01-06T21:57:59.828Z,6.73
2019-01-06T22:00:49.426Z,5.07
2019-01-06T22:03:55.528Z,3.90
2019-01-06T22:06:45.257Z,4.47
2019-01-06T22:09:36.246Z,5.00
2019-01-06T22:12:29.793Z,4.40
2019-01-06T22:15:19.598Z,4.27
2019-01-06T22:18:10.649Z,5.40
2019-01-06T22:21:01.849Z,5.17
2019-01-06T22:23:50.446Z,5.10
2019-01-06T22:26:53.322Z,3.07
2019-01-06T22:29:42.918Z,3.83
2019-01-06T22:32:36.989Z,4.53
2019-01-06T22:35:43.731Z,5.50
2019-01-06T22:38:33.032Z,4.17
2019-01-06T22:41:21.588Z,3.73
2019-01-06T22:44:11.186Z,4.07
2019-01-06T22:47:17.387Z,3.63
2019-01-06T22:50:11.388Z,5.33
2019-01-06T22:53:11.588Z,4.70
2019-01-06T22:56:11.548Z,5.13
2019-01-06T22:59:05.315Z,5.70
2019-01-06T23:01:54.989Z,5.87
2019-01-06T23:04:52.951Z,3.97
2019-01-06T23:07:38.201Z,4.13
2019-01-06T23:10:41.192Z,4.10
2019-01-06T23:13:44.056Z,3.73
2019-01-06T23:16:33.435Z,3.53
2019-01-06T23:19:30.658Z,4.40
2019-01-06T23:22:27.463Z,3.90
2019-01-06T23:25:17.023Z,5.87
2019-01-06T23:28:04.972Z,4.73
2019-01-06T23:31:14.084Z,4.83
2019-01-06T23:34:03.298Z,5.50
2019-01-06T23:36:56.222Z,5.73
2019-01-06T23:39:45.888Z,3.30
2019-01-06T23:42:35.476Z,5.90
2019-01-06T23:45:25.414Z,4.67
2019-01-06T23:48:16.402Z,3.57
2019-01-06T23:51:07.455Z,3.57
2019-01-06T23:54:09.509Z,4.60
2019-01-06T23:57:00.663Z,5.40
2019-01-06T23:59:50.360Z,4.40
